Alsville, South Dakota
Current Conditions -  °F | °C
As of 11:53 AM on Friday 19 Dec 2014 (Local Time) from KATY Reporting Station
Haze Haze  
Wind Chill: -10°   Ceiling: 200
Heat Index: -3°   Visibility: 1.5mi
Dew Point: -3°   Wind: 17mph
Humidity: 96%   Direction: 180°S
Pressure: 30.04"   Gusts: NA
Location:  44.5892°N, 97.2322°W
Report Text: KATY 191753Z AUTO 18015KT 1 1/2SM BR OVC002 M03/M03 A3004 RMK AO2 SLP197 T10281033 11028 21033 58010
Loading
Personal Weather Stations






























Interactive Weather Map New forecast layout! Learn more

10-Day Weather Forecast

Advertisements
Track Severe Weather on mobile